createdAt,value
2023-05-15T03:15:19.863Z,0.9
2023-05-15T03:30:20.421Z,4
2023-05-15T03:45:19.525Z,10
2023-05-15T04:03:27.187Z,19.7
2023-05-15T04:15:19.564Z,31.1
2023-05-15T04:30:21.268Z,42.5
2023-05-15T04:45:19.999Z,53.6
2023-05-15T05:00:21.246Z,64.2
2023-05-15T05:15:24.880Z,70.4
2023-05-15T05:30:20.012Z,77.1
2023-05-15T05:45:20.153Z,85.3
2023-05-15T06:00:19.905Z,74.5
2023-05-15T06:15:20.072Z,80.7
2023-05-15T06:30:20.335Z,94.2
2023-05-15T06:45:20.395Z,102.6
2023-05-15T07:00:20.571Z,109
2023-05-15T07:15:19.836Z,115.5
2023-05-15T07:30:19.950Z,123.4
2023-05-15T07:45:19.847Z,130.3
2023-05-15T08:00:20.003Z,135.8
2023-05-15T08:15:19.993Z,142.6
2023-05-15T08:30:20.431Z,153.3
2023-05-15T08:45:20.122Z,166.9
2023-05-15T09:00:20.874Z,179.9
2023-05-15T09:15:20.457Z,192.8
2023-05-15T09:30:19.807Z,206.1
2023-05-15T09:45:20.629Z,217
2023-05-15T10:00:20.150Z,190.4
2023-05-15T10:15:20.557Z,174.7
2023-05-15T10:30:19.708Z,197.7
2023-05-15T10:45:19.719Z,224.4
2023-05-15T11:00:19.964Z,238.8
2023-05-15T11:15:20.117Z,233.3
2023-05-15T11:30:19.871Z,263.2
2023-05-15T11:45:19.763Z,207.5
2023-05-15T12:00:20.186Z,203.6
2023-05-15T12:15:20.682Z,189.2
2023-05-15T12:30:21.161Z,160.3
2023-05-15T12:45:20.646Z,98.1
2023-05-15T13:00:19.801Z,110.6
2023-05-15T13:15:19.787Z,116.9
2023-05-15T13:30:19.921Z,156.7
2023-05-15T13:45:19.667Z,175.8
2023-05-15T14:00:19.949Z,218.4
2023-05-15T14:15:20.243Z,883.8
2023-05-15T14:30:20.879Z,710.4
2023-05-15T14:45:23.149Z,588.9
2023-05-15T15:00:20.697Z,271.5
2023-05-15T15:15:20.578Z,321.3
2023-05-15T15:30:20.056Z,533.2
2023-05-15T15:45:20.234Z,304.2
2023-05-15T16:00:21.023Z,143.3
2023-05-15T16:15:23.243Z,97.3
2023-05-15T16:30:20.480Z,108.6
2023-05-15T16:45:20.041Z,178.3
2023-05-15T17:00:20.060Z,366.4
2023-05-15T17:15:19.804Z,165.1
2023-05-15T17:30:20.835Z,233.4
2023-05-15T17:45:19.968Z,140.9
2023-05-15T18:00:20.267Z,79.4
2023-05-15T18:15:20.037Z,37.7
2023-05-15T18:30:20.605Z,15.5
2023-05-15T18:45:22.183Z,8.5
2023-05-15T19:00:34.041Z,4.1
2023-05-15T19:15:20.101Z,1.2
2023-05-15T19:30:19.625Z,0.8
2023-05-15T19:45:19.672Z,0.8
2023-05-15T20:00:20.340Z,0.8
2023-05-15T20:15:20.377Z,0.8
